createdAt,value
2023-05-04T00:02:02.366Z,100.00
2023-05-04T00:04:47.667Z,100.00
2023-05-04T00:07:32.992Z,100.00
2023-05-04T00:10:18.275Z,100.00
2023-05-04T00:13:03.515Z,100.00
2023-05-04T00:15:48.411Z,100.00
2023-05-04T00:18:33.822Z,100.00
2023-05-04T00:21:19.026Z,100.00
2023-05-04T00:24:04.305Z,100.00
2023-05-04T00:26:49.519Z,100.00
2023-05-04T00:29:34.514Z,100.00
2023-05-04T00:32:19.728Z,100.00
2023-05-04T00:35:05.348Z,100.00
2023-05-04T00:37:50.383Z,100.00
2023-05-04T00:40:35.843Z,100.00
2023-05-04T00:43:21.184Z,100.00
2023-05-04T00:46:06.581Z,100.00
2023-05-04T00:48:52.672Z,100.00
2023-05-04T00:51:37.964Z,100.00
2023-05-04T00:54:23.272Z,100.00
2023-05-04T00:57:08.749Z,100.00
2023-05-04T00:59:54.138Z,100.00
2023-05-04T01:02:41.193Z,100.00
2023-05-04T01:05:31.418Z,100.00
2023-05-04T01:08:21.296Z,100.00
2023-05-04T01:11:29.608Z,100.00
2023-05-04T01:14:15.268Z,100.00
2023-05-04T01:17:02.738Z,100.00
2023-05-04T01:19:48.109Z,100.00
2023-05-04T01:22:33.281Z,100.00
2023-05-04T01:25:19.023Z,100.00
2023-05-04T01:28:21.399Z,100.00
2023-05-04T01:31:09.508Z,100.00
2023-05-04T01:33:56.088Z,100.00
2023-05-04T01:36:41.881Z,100.00
2023-05-04T01:39:27.700Z,100.00
2023-05-04T01:42:12.712Z,100.00
2023-05-04T01:44:57.837Z,100.00
2023-05-04T01:47:43.249Z,100.00
2023-05-04T01:50:28.547Z,100.00
2023-05-04T01:53:13.854Z,100.00
2023-05-04T01:55:58.882Z,100.00
2023-05-04T01:58:44.185Z,100.00
2023-05-04T02:01:29.433Z,100.00
2023-05-04T02:04:14.443Z,100.00
2023-05-04T02:06:59.630Z,100.00
2023-05-04T02:09:44.815Z,100.00
2023-05-04T02:12:29.805Z,100.00
2023-05-04T02:15:14.964Z,100.00
2023-05-04T02:18:00.386Z,100.00
2023-05-04T02:20:46.285Z,100.00
2023-05-04T02:23:31.452Z,100.00
2023-05-04T02:26:16.360Z,100.00
2023-05-04T02:29:03.231Z,100.00
2023-05-04T02:31:48.355Z,100.00
2023-05-04T02:34:35.244Z,100.00
2023-05-04T02:37:20.687Z,100.00
2023-05-04T02:40:06.934Z,100.00
2023-05-04T02:42:52.516Z,100.00
2023-05-04T02:45:37.918Z,100.00
2023-05-04T02:48:24.706Z,100.00
2023-05-04T02:51:09.984Z,100.00
2023-05-04T02:53:55.260Z,100.00
2023-05-04T02:56:40.118Z,100.00
2023-05-04T02:59:25.182Z,100.00
2023-05-04T03:02:10.179Z,100.00
2023-05-04T03:04:55.674Z,100.00
2023-05-04T03:07:40.913Z,100.00
2023-05-04T03:10:26.011Z,100.00
2023-05-04T03:13:11.436Z,100.00
2023-05-04T03:15:56.900Z,100.00
2023-05-04T03:18:57.454Z,100.00
2023-05-04T03:21:43.061Z,100.00
2023-05-04T03:24:28.397Z,100.00
2023-05-04T03:27:13.614Z,100.00
2023-05-04T03:29:58.915Z,100.00
2023-05-04T03:32:44.845Z,100.00
2023-05-04T03:35:30.044Z,100.00
2023-05-04T03:38:15.422Z,100.00
2023-05-04T03:41:00.630Z,100.00
2023-05-04T03:43:45.724Z,100.00
2023-05-04T03:46:31.375Z,100.00
2023-05-04T03:49:16.747Z,100.00
2023-05-04T03:52:02.019Z,100.00
2023-05-04T03:54:47.130Z,100.00
2023-05-04T03:57:32.374Z,100.00
2023-05-04T04:00:18.390Z,100.00
2023-05-04T04:03:03.958Z,100.00
2023-05-04T04:05:49.177Z,100.00
2023-05-04T04:08:34.152Z,100.00
2023-05-04T04:11:19.213Z,100.00
2023-05-04T04:14:04.371Z,100.00
2023-05-04T04:16:49.336Z,100.00
2023-05-04T04:19:34.302Z,100.00
2023-05-04T04:22:19.283Z,100.00
2023-05-04T04:25:04.643Z,100.00
2023-05-04T04:27:49.745Z,100.00
2023-05-04T04:30:35.056Z,100.00
2023-05-04T04:33:20.445Z,100.00
2023-05-04T04:36:06.013Z,100.00
2023-05-04T04:38:51.305Z,100.00
2023-05-04T04:41:36.928Z,100.00
2023-05-04T04:44:21.882Z,100.00
2023-05-04T04:47:07.378Z,100.00
2023-05-04T04:49:52.954Z,100.00
2023-05-04T04:52:38.398Z,100.00
2023-05-04T04:55:25.797Z,100.00
2023-05-04T04:58:11.030Z,100.00
2023-05-04T05:00:58.291Z,100.00
2023-05-04T05:03:47.142Z,100.00
2023-05-04T05:06:32.102Z,100.00
2023-05-04T05:09:17.311Z,100.00
2023-05-04T05:12:02.619Z,100.00
2023-05-04T05:14:48.079Z,100.00
2023-05-04T05:17:35.477Z,100.00
2023-05-04T05:20:21.345Z,100.00
2023-05-04T05:23:06.530Z,100.00
2023-05-04T05:25:51.601Z,100.00
2023-05-04T05:28:37.187Z,100.00
2023-05-04T05:31:22.491Z,100.00
2023-05-04T05:34:08.022Z,100.00
2023-05-04T05:36:53.357Z,100.00
2023-05-04T05:39:38.578Z,100.00
2023-05-04T05:42:23.689Z,100.00
2023-05-04T05:45:12.092Z,100.00
2023-05-04T05:47:57.537Z,100.00
2023-05-04T05:50:42.771Z,100.00
2023-05-04T05:53:28.080Z,100.00
2023-05-04T05:56:14.728Z,100.00
2023-05-04T05:58:59.871Z,100.00
2023-05-04T06:01:45.143Z,100.00
2023-05-04T06:04:30.376Z,100.00
2023-05-04T06:07:15.913Z,100.00
2023-05-04T06:10:01.228Z,100.00
2023-05-04T06:12:46.422Z,100.00
2023-05-04T06:15:31.561Z,100.00
2023-05-04T06:18:16.811Z,100.00
2023-05-04T06:21:02.085Z,100.00
2023-05-04T06:23:47.686Z,100.00
2023-05-04T06:26:32.764Z,100.00
2023-05-04T06:29:17.925Z,100.00
2023-05-04T06:32:03.091Z,100.00
2023-05-04T06:34:48.203Z,99.43
2023-05-04T06:37:33.218Z,98.94
2023-05-04T06:40:18.450Z,97.49
2023-05-04T06:43:03.757Z,96.99
2023-05-04T06:45:48.768Z,96.59
2023-05-04T06:48:34.102Z,96.46
2023-05-04T06:51:18.897Z,96.26
2023-05-04T06:54:04.356Z,96.25
2023-05-04T06:56:49.540Z,95.98
2023-05-04T06:59:34.493Z,95.45
2023-05-04T07:02:19.467Z,95.02
2023-05-04T07:05:05.138Z,94.49
2023-05-04T07:07:51.901Z,94.18
2023-05-04T07:10:37.116Z,92.85
2023-05-04T07:13:28.883Z,92.33
2023-05-04T07:16:13.851Z,91.12
2023-05-04T07:18:59.178Z,90.39
2023-05-04T07:21:44.045Z,89.44
2023-05-04T07:24:30.305Z,88.96
2023-05-04T07:27:15.410Z,88.72
2023-05-04T07:30:01.383Z,88.24
2023-05-04T07:32:47.233Z,88.21
2023-05-04T07:35:32.102Z,87.80
2023-05-04T07:38:17.095Z,87.99
2023-05-04T07:41:02.057Z,88.09
2023-05-04T07:43:47.288Z,87.62
2023-05-04T07:46:32.260Z,86.80
2023-05-04T07:49:17.350Z,86.31
2023-05-04T07:52:04.079Z,85.49
2023-05-04T07:54:53.181Z,85.30
2023-05-04T07:57:38.181Z,85.45
2023-05-04T08:00:23.537Z,85.62
2023-05-04T08:03:08.934Z,85.00
2023-05-04T08:05:53.974Z,84.59
2023-05-04T08:08:38.862Z,83.34
2023-05-04T08:11:23.850Z,80.97
2023-05-04T08:14:09.065Z,80.32
2023-05-04T08:16:54.416Z,79.31
2023-05-04T08:19:39.601Z,76.16
2023-05-04T08:22:24.950Z,73.11
2023-05-04T08:25:10.255Z,72.34
2023-05-04T08:27:55.252Z,72.35
2023-05-04T08:30:40.446Z,71.94
2023-05-04T08:33:25.385Z,72.23
2023-05-04T08:36:10.753Z,71.47
2023-05-04T08:38:56.257Z,71.51
2023-05-04T08:41:41.755Z,71.48
2023-05-04T08:44:26.732Z,71.05
2023-05-04T08:47:12.322Z,70.69
2023-05-04T08:49:57.482Z,70.66
2023-05-04T08:52:46.632Z,70.44
2023-05-04T08:55:33.950Z,70.85
2023-05-04T08:58:22.021Z,70.80
2023-05-04T09:01:08.175Z,70.84
2023-05-04T09:03:54.095Z,70.36
2023-05-04T09:06:39.331Z,70.54
2023-05-04T09:09:28.738Z,70.47
2023-05-04T09:12:14.337Z,70.32
2023-05-04T09:15:02.289Z,68.34
2023-05-04T09:18:09.830Z,67.94
2023-05-04T09:20:55.004Z,68.21
2023-05-04T09:23:51.220Z,67.64
2023-05-04T09:26:37.511Z,66.65
2023-05-04T09:29:25.479Z,66.26
2023-05-04T09:32:12.507Z,66.23
2023-05-04T09:34:57.560Z,65.41
2023-05-04T09:37:45.118Z,64.35
2023-05-04T09:40:40.672Z,64.39
2023-05-04T09:43:25.584Z,64.80
2023-05-04T09:46:20.030Z,63.29
2023-05-04T09:49:05.411Z,62.48
2023-05-04T09:51:50.700Z,62.50
2023-05-04T09:54:37.787Z,62.50
2023-05-04T09:57:23.527Z,62.37
2023-05-04T10:00:12.422Z,61.51
2023-05-04T10:02:58.308Z,60.95
2023-05-04T10:05:43.676Z,61.05
2023-05-04T10:08:29.143Z,60.48
2023-05-04T10:11:16.045Z,59.66
2023-05-04T10:14:01.418Z,58.75
2023-05-04T10:17:03.494Z,58.50
2023-05-04T10:20:07.374Z,58.47
2023-05-04T10:23:23.709Z,59.00
2023-05-04T10:26:22.386Z,57.98
2023-05-04T10:29:33.150Z,57.79
2023-05-04T10:32:23.198Z,57.35
2023-05-04T10:35:10.086Z,57.26
2023-05-04T10:37:56.579Z,56.97
2023-05-04T10:40:42.049Z,55.86
2023-05-04T10:43:29.173Z,54.38
2023-05-04T10:46:22.248Z,54.94
2023-05-04T10:49:17.777Z,55.42
2023-05-04T10:52:11.535Z,54.70
2023-05-04T10:55:01.650Z,55.27
2023-05-04T10:57:51.682Z,55.94
2023-05-04T11:00:38.823Z,56.16
2023-05-04T11:03:25.047Z,56.14
2023-05-04T11:06:24.002Z,56.24
2023-05-04T11:09:12.327Z,56.80
2023-05-04T11:11:57.516Z,56.37
2023-05-04T11:14:43.486Z,56.43
2023-05-04T11:17:28.915Z,56.84
2023-05-04T11:20:26.121Z,56.41
2023-05-04T11:23:16.059Z,56.38
2023-05-04T11:26:06.693Z,55.41
2023-05-04T11:28:53.200Z,55.40
2023-05-04T11:31:38.485Z,54.79
2023-05-04T11:34:24.046Z,52.92
2023-05-04T11:37:09.603Z,52.71
2023-05-04T11:39:54.955Z,52.99
2023-05-04T11:42:44.035Z,53.58
2023-05-04T11:45:36.610Z,53.15
2023-05-04T11:48:22.079Z,53.60
2023-05-04T11:51:07.419Z,53.65
2023-05-04T11:53:53.691Z,54.20
2023-05-04T11:56:42.595Z,54.02
2023-05-04T11:59:27.626Z,54.51
2023-05-04T12:02:17.298Z,53.59
2023-05-04T12:05:03.292Z,53.39
2023-05-04T12:07:48.858Z,52.83
2023-05-04T12:10:35.143Z,51.86
2023-05-04T12:13:20.684Z,52.05
2023-05-04T12:16:16.366Z,51.85
2023-05-04T12:19:06.987Z,52.71
2023-05-04T12:21:58.312Z,52.81
2023-05-04T12:24:43.517Z,52.18
2023-05-04T12:27:28.910Z,51.66
2023-05-04T12:30:14.389Z,50.85
2023-05-04T12:32:59.604Z,50.56
2023-05-04T12:35:45.018Z,50.38
2023-05-04T12:38:30.510Z,50.75
2023-05-04T12:41:15.569Z,48.75
2023-05-04T12:44:01.399Z,47.78
2023-05-04T12:46:46.283Z,47.57
2023-05-04T12:49:31.221Z,48.98
2023-05-04T12:52:16.398Z,49.17
2023-05-04T12:55:01.705Z,48.54
2023-05-04T12:57:46.818Z,48.59
2023-05-04T13:00:37.649Z,49.71
2023-05-04T13:03:23.542Z,50.07
2023-05-04T13:06:08.982Z,50.52
2023-05-04T13:08:54.197Z,50.93
2023-05-04T13:11:39.395Z,50.17
2023-05-04T13:14:24.294Z,50.72
2023-05-04T13:17:09.339Z,51.71
2023-05-04T13:19:54.684Z,52.11
2023-05-04T13:22:40.148Z,52.41
2023-05-04T13:25:25.532Z,53.06
2023-05-04T13:28:10.777Z,53.27
2023-05-04T13:30:56.286Z,53.80
2023-05-04T13:33:41.569Z,54.25
2023-05-04T13:36:26.637Z,54.88
2023-05-04T13:39:11.850Z,54.94
2023-05-04T13:41:57.068Z,55.70
2023-05-04T13:44:45.005Z,56.00
2023-05-04T13:47:29.922Z,56.23
2023-05-04T13:50:15.164Z,56.69
2023-05-04T13:53:00.429Z,58.26
2023-05-04T13:55:45.512Z,59.24
2023-05-04T13:58:30.840Z,58.98
2023-05-04T14:01:16.202Z,58.40
2023-05-04T14:04:01.117Z,56.41
2023-05-04T14:06:50.035Z,54.88
2023-05-04T14:09:34.968Z,52.29
2023-05-04T14:12:22.226Z,50.82
2023-05-04T14:15:08.266Z,51.45
2023-05-04T14:17:53.400Z,51.90
2023-05-04T14:20:38.429Z,51.96
2023-05-04T14:23:23.708Z,50.75
2023-05-04T14:26:18.275Z,50.23
2023-05-04T14:29:03.653Z,50.56
2023-05-04T14:31:48.667Z,50.77
2023-05-04T14:34:33.764Z,50.32
2023-05-04T14:37:18.972Z,49.01
2023-05-04T14:40:11.543Z,48.47
2023-05-04T14:42:59.628Z,49.56
2023-05-04T14:45:44.783Z,50.78
2023-05-04T14:48:30.002Z,51.70
2023-05-04T14:51:28.046Z,51.21
2023-05-04T14:54:13.559Z,48.59
2023-05-04T14:56:59.740Z,49.63
2023-05-04T14:59:44.748Z,49.67
2023-05-04T15:02:29.798Z,49.66
2023-05-04T15:05:15.841Z,48.98
2023-05-04T15:08:01.803Z,48.31
2023-05-04T15:10:46.771Z,49.36
2023-05-04T15:13:32.366Z,47.75
2023-05-04T15:16:19.423Z,47.63
2023-05-04T15:19:05.366Z,47.97
2023-05-04T15:21:50.674Z,47.83
2023-05-04T15:24:36.093Z,47.49
2023-05-04T15:27:21.748Z,47.36
2023-05-04T15:30:08.847Z,48.22
2023-05-04T15:32:54.458Z,47.95
2023-05-04T15:35:39.618Z,48.96
2023-05-04T15:38:25.567Z,48.99
2023-05-04T15:41:10.792Z,48.14
2023-05-04T15:43:56.238Z,47.91
2023-05-04T15:46:41.475Z,48.00
2023-05-04T15:49:26.914Z,49.31
2023-05-04T15:52:12.100Z,48.70
2023-05-04T15:55:02.310Z,48.84
2023-05-04T15:57:54.385Z,49.34
2023-05-04T16:00:39.840Z,49.65
2023-05-04T16:03:25.592Z,50.56
2023-05-04T16:06:11.710Z,51.22
2023-05-04T16:08:57.118Z,52.15
2023-05-04T16:11:43.828Z,52.45
2023-05-04T16:14:28.848Z,53.27
2023-05-04T16:17:13.955Z,53.41
2023-05-04T16:19:58.912Z,54.25
2023-05-04T16:22:43.881Z,54.56
2023-05-04T16:25:31.725Z,55.32
2023-05-04T16:28:16.832Z,56.48
2023-05-04T16:31:03.051Z,57.21
2023-05-04T16:33:48.194Z,57.18
2023-05-04T16:36:33.482Z,58.33
2023-05-04T16:39:19.039Z,58.86
2023-05-04T16:42:07.417Z,59.51
2023-05-04T16:44:52.768Z,60.17
2023-05-04T16:47:38.105Z,60.33
2023-05-04T16:50:23.778Z,60.72
2023-05-04T16:53:08.605Z,61.10
2023-05-04T16:55:53.861Z,61.45
2023-05-04T16:58:38.936Z,61.80
2023-05-04T17:01:23.932Z,62.32
2023-05-04T17:04:09.704Z,61.92
2023-05-04T17:06:55.578Z,62.89
2023-05-04T17:09:41.240Z,63.09
2023-05-04T17:12:26.893Z,62.79
2023-05-04T17:15:12.469Z,62.20
2023-05-04T17:17:57.713Z,62.69
2023-05-04T17:20:42.783Z,62.96
2023-05-04T17:23:28.056Z,62.21
2023-05-04T17:26:14.548Z,62.52
2023-05-04T17:28:59.879Z,62.84
2023-05-04T17:31:45.091Z,62.74
2023-05-04T17:34:30.149Z,63.09
2023-05-04T17:37:15.497Z,63.74
2023-05-04T17:40:00.832Z,64.15
2023-05-04T17:42:45.947Z,65.11
2023-05-04T17:45:30.924Z,65.63
2023-05-04T17:48:16.381Z,66.32
2023-05-04T17:51:01.657Z,68.48
2023-05-04T17:53:46.716Z,70.91
2023-05-04T17:56:31.904Z,73.18
2023-05-04T17:59:17.722Z,74.97
2023-05-04T18:02:03.234Z,76.19
2023-05-04T18:04:48.746Z,77.21
2023-05-04T18:07:33.761Z,78.09
2023-05-04T18:10:19.194Z,79.66
2023-05-04T18:13:05.025Z,80.00
2023-05-04T18:15:51.033Z,79.97
2023-05-04T18:18:36.272Z,79.78
2023-05-04T18:21:21.235Z,80.40
2023-05-04T18:24:07.200Z,80.71
2023-05-04T18:26:55.543Z,80.74
2023-05-04T18:29:40.992Z,81.55
2023-05-04T18:32:26.634Z,81.84
2023-05-04T18:35:12.107Z,82.23
2023-05-04T18:37:57.487Z,82.56
2023-05-04T18:40:43.039Z,82.85
2023-05-04T18:43:28.337Z,83.74
2023-05-04T18:46:13.653Z,84.35
2023-05-04T18:48:59.013Z,84.78
2023-05-04T18:51:44.101Z,84.97
2023-05-04T18:54:30.481Z,86.03
2023-05-04T18:57:15.721Z,86.23
2023-05-04T19:00:01.137Z,86.54
2023-05-04T19:02:46.466Z,86.41
2023-05-04T19:05:31.787Z,86.77
2023-05-04T19:08:17.022Z,87.16
2023-05-04T19:11:05.162Z,87.48
2023-05-04T19:13:50.188Z,87.88
2023-05-04T19:16:35.093Z,87.35
2023-05-04T19:19:20.170Z,87.70
2023-05-04T19:22:05.304Z,88.17
2023-05-04T19:24:51.531Z,88.74
2023-05-04T19:27:36.909Z,89.83
2023-05-04T19:30:22.102Z,90.69
2023-05-04T19:33:09.961Z,91.41
2023-05-04T19:35:56.480Z,91.19
2023-05-04T19:38:41.717Z,91.02
2023-05-04T19:41:27.000Z,91.48
2023-05-04T19:44:12.009Z,91.29
2023-05-04T19:46:57.238Z,91.89
2023-05-04T19:49:45.909Z,91.93
2023-05-04T19:52:31.285Z,92.21
2023-05-04T19:55:17.119Z,92.88
2023-05-04T19:58:02.302Z,93.59
2023-05-04T20:00:48.663Z,93.58
2023-05-04T20:03:34.232Z,93.88
2023-05-04T20:06:19.156Z,94.33
2023-05-04T20:09:04.354Z,94.98
2023-05-04T20:11:49.277Z,95.76
2023-05-04T20:14:34.362Z,96.47
2023-05-04T20:17:19.732Z,96.67
2023-05-04T20:20:06.191Z,96.66
2023-05-04T20:22:54.667Z,96.87
2023-05-04T20:25:39.842Z,97.31
2023-05-04T20:28:24.828Z,97.35
2023-05-04T20:31:09.879Z,97.67
2023-05-04T20:33:55.204Z,97.94
2023-05-04T20:36:40.712Z,97.79
2023-05-04T20:39:25.945Z,97.40
2023-05-04T20:42:10.884Z,97.84
2023-05-04T20:44:56.028Z,97.80
2023-05-04T20:47:42.630Z,97.62
2023-05-04T20:50:27.819Z,98.33
2023-05-04T20:53:13.198Z,98.65
2023-05-04T20:55:58.191Z,98.66
2023-05-04T20:58:43.345Z,98.76
2023-05-04T21:01:29.690Z,99.04
2023-05-04T21:04:15.069Z,99.29
2023-05-04T21:07:00.378Z,99.75
2023-05-04T21:09:45.745Z,99.98
2023-05-04T21:12:31.364Z,100.00
2023-05-04T21:15:16.820Z,100.00
2023-05-04T21:18:01.887Z,100.00
2023-05-04T21:20:47.545Z,100.00
2023-05-04T21:23:32.778Z,100.00
2023-05-04T21:26:17.921Z,100.00
2023-05-04T21:29:03.119Z,100.00
2023-05-04T21:31:48.149Z,100.00
2023-05-04T21:34:33.224Z,100.00
2023-05-04T21:37:18.829Z,100.00
2023-05-04T21:40:04.313Z,100.00
2023-05-04T21:42:49.327Z,100.00
2023-05-04T21:45:34.909Z,100.00
2023-05-04T21:48:19.967Z,100.00
2023-05-04T21:51:05.129Z,100.00
2023-05-04T21:53:50.415Z,100.00
2023-05-04T21:56:35.869Z,100.00
2023-05-04T21:59:20.910Z,100.00
2023-05-04T22:02:06.116Z,100.00
2023-05-04T22:04:51.437Z,100.00
2023-05-04T22:07:37.280Z,100.00
2023-05-04T22:10:22.868Z,100.00
2023-05-04T22:13:08.475Z,100.00
2023-05-04T22:15:53.981Z,100.00
2023-05-04T22:18:39.173Z,100.00
2023-05-04T22:21:24.195Z,100.00
2023-05-04T22:24:09.137Z,100.00
2023-05-04T22:26:54.199Z,100.00
2023-05-04T22:29:39.320Z,100.00
2023-05-04T22:32:24.364Z,100.00
2023-05-04T22:35:09.455Z,100.00
2023-05-04T22:37:54.656Z,100.00
2023-05-04T22:40:40.568Z,100.00
2023-05-04T22:43:26.184Z,100.00
2023-05-04T22:46:16.806Z,100.00
2023-05-04T22:49:01.860Z,100.00
2023-05-04T22:51:46.859Z,100.00
2023-05-04T22:54:31.998Z,100.00
2023-05-04T22:57:17.204Z,100.00
2023-05-04T23:00:05.227Z,100.00
2023-05-04T23:02:50.801Z,100.00
2023-05-04T23:05:36.408Z,100.00
2023-05-04T23:08:21.574Z,100.00
2023-05-04T23:11:06.687Z,100.00
2023-05-04T23:13:52.252Z,100.00
2023-05-04T23:16:37.931Z,100.00
2023-05-04T23:19:23.413Z,100.00
2023-05-04T23:22:08.282Z,100.00
2023-05-04T23:24:53.647Z,100.00
2023-05-04T23:27:39.501Z,100.00
2023-05-04T23:30:24.494Z,100.00
2023-05-04T23:33:09.542Z,100.00
2023-05-04T23:35:55.931Z,100.00
2023-05-04T23:38:40.948Z,100.00
2023-05-04T23:41:26.165Z,100.00
2023-05-04T23:44:11.300Z,100.00
2023-05-04T23:46:56.510Z,100.00
2023-05-04T23:49:41.699Z,100.00
2023-05-04T23:52:26.786Z,100.00
2023-05-04T23:55:11.621Z,100.00
2023-05-04T23:57:56.669Z,100.00
